createdAt,value
2023-03-06T00:03:56.233Z,1.10
2023-03-06T00:08:49.277Z,1.00
2023-03-06T00:13:34.438Z,1.00
2023-03-06T00:18:21.652Z,1.00
2023-03-06T00:23:08.515Z,1.00
2023-03-06T00:27:57.946Z,0.90
2023-03-06T00:32:44.873Z,1.00
2023-03-06T00:37:37.171Z,1.00
2023-03-06T00:42:21.184Z,1.00
2023-03-06T00:47:08.572Z,0.90
2023-03-06T00:52:17.309Z,0.90
2023-03-06T00:57:02.174Z,0.90
2023-03-06T01:01:49.286Z,0.90
2023-03-06T01:06:41.617Z,0.80
2023-03-06T01:11:25.357Z,0.70
2023-03-06T01:16:19.965Z,0.80
2023-03-06T01:21:21.884Z,0.70
2023-03-06T01:26:41.006Z,0.60
2023-03-06T01:31:27.512Z,0.60
2023-03-06T01:36:16.347Z,0.60
2023-03-06T01:41:00.505Z,0.50
2023-03-06T01:46:24.142Z,0.50
2023-03-06T01:51:10.252Z,0.50
2023-03-06T01:56:01.596Z,0.40
2023-03-06T02:01:02.153Z,0.50
2023-03-06T02:05:50.452Z,0.50
2023-03-06T02:10:35.990Z,0.40
2023-03-06T02:15:37.323Z,0.30
2023-03-06T02:20:39.269Z,0.30
2023-03-06T02:25:50.659Z,0.40
2023-03-06T02:31:03.465Z,0.20
2023-03-06T02:35:54.383Z,0.20
2023-03-06T02:40:44.923Z,0.20
2023-03-06T02:50:33.757Z,0.10
2023-03-06T02:55:36.302Z,0.00
2023-03-06T03:01:02.318Z,0.00
2023-03-06T03:06:17.838Z,0.10
2023-03-06T03:11:19.432Z,-0.10
2023-03-06T03:16:14.106Z,-0.10
2023-03-06T03:21:13.222Z,-0.10
2023-03-06T03:26:17.490Z,-0.10
2023-03-06T03:31:20.451Z,0.00
2023-03-06T03:36:09.191Z,-0.20
2023-03-06T03:41:12.330Z,-0.20
2023-03-06T03:46:04.531Z,-0.30
2023-03-06T03:50:50.208Z,-0.30
2023-03-06T03:55:37.015Z,-0.30
2023-03-06T04:00:26.388Z,-0.40
2023-03-06T04:05:30.701Z,-0.30
2023-03-06T04:10:16.394Z,-0.30
2023-03-06T04:15:05.449Z,-0.20
2023-03-06T04:19:58.461Z,-0.20
2023-03-06T04:24:42.451Z,-0.30
2023-03-06T04:29:30.638Z,-0.20
2023-03-06T04:35:02.382Z,-0.20
2023-03-06T04:39:38.095Z,-0.30
2023-03-06T04:44:24.645Z,-0.20
2023-03-06T04:49:13.094Z,-0.20
2023-03-06T04:54:00.022Z,-0.20
2023-03-06T04:58:47.756Z,-0.20
2023-03-06T05:03:37.634Z,-0.10
2023-03-06T05:08:27.426Z,0.00
2023-03-06T05:13:11.574Z,-0.20
2023-03-06T05:18:04.834Z,-0.30
2023-03-06T05:22:48.386Z,-0.30
2023-03-06T05:27:39.696Z,-0.20
2023-03-06T05:32:24.069Z,-0.40
2023-03-06T05:37:17.095Z,-0.50
2023-03-06T05:42:00.906Z,-0.40
2023-03-06T05:46:50.318Z,-0.50
2023-03-06T05:51:36.932Z,-0.50
2023-03-06T05:56:25.144Z,-0.50
2023-03-06T06:01:14.668Z,-0.40
2023-03-06T06:06:05.319Z,-0.30
2023-03-06T06:10:51.020Z,-0.30
2023-03-06T06:15:36.787Z,-0.20
2023-03-06T06:20:24.020Z,-0.20
2023-03-06T06:25:15.201Z,0.00
2023-03-06T06:29:59.659Z,-0.10
2023-03-06T06:34:49.305Z,-0.10
2023-03-06T06:39:36.033Z,-0.10
2023-03-06T06:44:25.186Z,0.10
2023-03-06T06:49:13.516Z,0.30
2023-03-06T06:54:00.787Z,0.40
2023-03-06T06:58:47.414Z,0.60
2023-03-06T07:03:37.398Z,0.80
2023-03-06T07:08:24.915Z,1.00
2023-03-06T07:13:11.445Z,1.10
2023-03-06T07:18:04.029Z,1.30
2023-03-06T07:22:51.696Z,1.30
2023-03-06T07:27:35.640Z,1.50
2023-03-06T07:32:25.288Z,1.50
2023-03-06T07:37:12.857Z,1.70
2023-03-06T07:42:01.178Z,1.70
2023-03-06T07:46:48.800Z,2.00
2023-03-06T07:51:38.499Z,1.90
2023-03-06T07:56:25.740Z,1.80
2023-03-06T08:01:16.360Z,2.10
2023-03-06T08:06:14.733Z,2.20
2023-03-06T08:11:07.718Z,2.10
2023-03-06T08:15:51.311Z,2.40
2023-03-06T08:20:43.623Z,2.40
2023-03-06T08:25:27.254Z,2.70
2023-03-06T08:30:15.938Z,2.90
2023-03-06T08:35:05.076Z,2.80
2023-03-06T08:39:55.641Z,3.10
2023-03-06T08:44:41.480Z,3.10
2023-03-06T08:49:28.983Z,3.20
2023-03-06T08:54:15.611Z,3.30
2023-03-06T08:59:06.034Z,3.40
2023-03-06T09:03:51.818Z,3.20
2023-03-06T09:08:43.212Z,3.40
2023-03-06T09:13:27.080Z,3.60
2023-03-06T09:18:19.599Z,3.80
2023-03-06T09:23:03.122Z,3.90
2023-03-06T09:28:10.090Z,4.10
2023-03-06T09:32:55.751Z,4.10
2023-03-06T09:37:46.876Z,4.20
2023-03-06T09:42:35.277Z,4.30
2023-03-06T09:47:48.357Z,4.50
2023-03-06T09:52:44.021Z,4.60
2023-03-06T09:57:33.083Z,4.80
2023-03-06T10:02:37.145Z,5.00
2023-03-06T10:07:35.030Z,5.70
2023-03-06T10:12:43.982Z,5.70
2023-03-06T10:17:32.832Z,5.30
2023-03-06T10:22:33.106Z,5.80
2023-03-06T10:27:38.206Z,5.40
2023-03-06T10:32:39.522Z,5.40
2023-03-06T10:37:32.319Z,4.90
2023-03-06T10:42:16.245Z,5.00
2023-03-06T10:47:38.611Z,5.10
2023-03-06T10:52:27.858Z,5.30
2023-03-06T10:57:27.644Z,5.20
2023-03-06T11:02:33.118Z,4.80
2023-03-06T11:07:26.004Z,4.60
2023-03-06T11:12:26.584Z,4.50
2023-03-06T11:17:28.940Z,4.60
2023-03-06T11:22:20.837Z,4.40
2023-03-06T11:27:18.264Z,4.20
2023-03-06T11:32:09.552Z,4.20
2023-03-06T11:37:01.940Z,4.30
2023-03-06T11:41:58.410Z,4.10
2023-03-06T11:46:54.203Z,4.00
2023-03-06T11:51:56.929Z,3.90
2023-03-06T11:56:55.776Z,4.20
2023-03-06T12:02:00.751Z,4.80
2023-03-06T12:07:02.928Z,4.90
2023-03-06T12:12:24.657Z,5.20
2023-03-06T12:17:26.930Z,5.10
2023-03-06T12:22:31.402Z,5.20
2023-03-06T12:27:39.695Z,4.90
2023-03-06T12:32:39.543Z,4.90
2023-03-06T12:37:43.564Z,4.90
2023-03-06T12:43:06.153Z,4.60
2023-03-06T12:47:56.839Z,4.50
2023-03-06T12:52:40.486Z,4.40
2023-03-06T12:57:31.088Z,3.80
2023-03-06T13:02:55.482Z,3.20
2023-03-06T13:07:53.837Z,2.80
2023-03-06T13:12:55.874Z,2.70
2023-03-06T13:17:44.943Z,2.70
2023-03-06T13:22:33.023Z,2.90
2023-03-06T13:28:09.130Z,3.10
2023-03-06T13:32:57.799Z,3.20
2023-03-06T13:37:59.150Z,3.20
2023-03-06T13:43:04.699Z,3.30
2023-03-06T13:48:21.195Z,3.50
2023-03-06T13:53:48.039Z,3.60
2023-03-06T13:58:46.001Z,3.70
2023-03-06T14:03:56.070Z,4.00
2023-03-06T14:08:42.462Z,4.10
2023-03-06T14:13:45.297Z,4.50
2023-03-06T14:18:46.780Z,4.80
2023-03-06T14:23:42.386Z,4.70
2023-03-06T14:28:29.396Z,4.30
2023-03-06T14:33:13.485Z,4.20
2023-03-06T14:38:03.907Z,4.30
2023-03-06T14:42:47.427Z,4.60
2023-03-06T14:47:39.546Z,4.60
2023-03-06T14:52:24.071Z,4.40
2023-03-06T14:57:14.761Z,4.20
2023-03-06T15:02:03.795Z,4.20
2023-03-06T15:06:49.409Z,4.20
2023-03-06T15:11:52.376Z,4.00
2023-03-06T15:16:37.789Z,4.00
2023-03-06T15:21:29.128Z,4.00
2023-03-06T15:26:33.154Z,4.10
2023-03-06T15:31:24.124Z,4.10
2023-03-06T15:36:27.681Z,4.20
2023-03-06T15:41:41.186Z,3.80
2023-03-06T15:46:32.660Z,3.60
2023-03-06T15:51:21.042Z,3.40
2023-03-06T15:56:07.806Z,3.40
2023-03-06T16:00:55.941Z,3.20
2023-03-06T16:05:48.587Z,2.40
2023-03-06T16:10:35.333Z,1.70
2023-03-06T16:15:22.091Z,1.30
2023-03-06T16:20:09.218Z,1.20
2023-03-06T16:24:57.072Z,1.00
2023-03-06T16:29:43.694Z,1.00
2023-03-06T16:34:49.592Z,1.00
2023-03-06T16:39:37.499Z,0.80
2023-03-06T16:44:24.112Z,0.70
2023-03-06T16:49:17.306Z,0.60
2023-03-06T16:54:00.837Z,0.60
2023-03-06T16:58:49.400Z,0.60
2023-03-06T17:03:39.510Z,0.60
2023-03-06T17:08:23.205Z,0.60
2023-03-06T17:13:12.581Z,0.60
2023-03-06T17:18:00.449Z,0.60
2023-03-06T17:22:48.259Z,0.60
2023-03-06T17:27:38.769Z,0.80
2023-03-06T17:32:25.059Z,0.70
2023-03-06T17:37:11.423Z,0.70
2023-03-06T17:42:01.464Z,0.70
2023-03-06T17:46:48.204Z,0.70
2023-03-06T17:51:41.269Z,0.80
2023-03-06T22:00:11.940Z,-0.40
2023-03-06T22:45:46.499Z,-0.30
2023-03-06T23:41:17.265Z,-0.20
2023-03-06T23:46:06.556Z,-0.10
2023-03-06T23:51:25.139Z,0.00
2023-03-06T23:56:10.072Z,-0.10
